sensor_id;sensor_type;location;lat;lon;timestamp;P1;durP1;ratioP1;P2;durP2;ratioP2
15281;SDS011;7742;44.320;19.820;2024-01-10T00:02:17;61.70;;;46.75;;
15281;SDS011;7742;44.320;19.820;2024-01-10T00:04:44;57.67;;;44.83;;
15281;SDS011;7742;44.320;19.820;2024-01-10T00:07:11;56.55;;;44.55;;
15281;SDS011;7742;44.320;19.820;2024-01-10T00:09:39;53.72;;;43.67;;
15281;SDS011;7742;44.320;19.820;2024-01-10T00:12:06;54.55;;;43.53;;
15281;SDS011;7742;44.320;19.820;2024-01-10T00:14:33;48.95;;;41.10;;
15281;SDS011;7742;44.320;19.820;2024-01-10T00:17:00;52.17;;;42.25;;
15281;SDS011;7742;44.320;19.820;2024-01-10T00:19:27;48.55;;;41.03;;
15281;SDS011;7742;44.320;19.820;2024-01-10T00:21:54;50.90;;;42.35;;
15281;SDS011;7742;44.320;19.820;2024-01-10T00:24:21;48.30;;;41.08;;
15281;SDS011;7742;44.320;19.820;2024-01-10T00:26:50;51.60;;;42.08;;
15281;SDS011;7742;44.320;19.820;2024-01-10T00:29:17;46.33;;;41.13;;
15281;SDS011;7742;44.320;19.820;2024-01-10T00:31:44;47.47;;;39.72;;
15281;SDS011;7742;44.320;19.820;2024-01-10T00:34:11;49.05;;;40.40;;
15281;SDS011;7742;44.320;19.820;2024-01-10T00:36:38;48.20;;;40.67;;
15281;SDS011;7742;44.320;19.820;2024-01-10T00:39:05;51.28;;;42.63;;
15281;SDS011;7742;44.320;19.820;2024-01-10T00:41:32;48.60;;;41.50;;
15281;SDS011;7742;44.320;19.820;2024-01-10T00:44:00;51.65;;;43.17;;
15281;SDS011;7742;44.320;19.820;2024-01-10T00:46:27;52.22;;;43.10;;
15281;SDS011;7742;44.320;19.820;2024-01-10T00:48:54;49.53;;;41.15;;
15281;SDS011;7742;44.320;19.820;2024-01-10T00:51:21;51.67;;;42.38;;
15281;SDS011;7742;44.320;19.820;2024-01-10T00:53:48;52.28;;;42.80;;
15281;SDS011;7742;44.320;19.820;2024-01-10T00:56:15;50.05;;;41.28;;
15281;SDS011;7742;44.320;19.820;2024-01-10T00:58:43;48.95;;;41.03;;
15281;SDS011;7742;44.320;19.820;2024-01-10T01:01:16;49.65;;;39.63;;
15281;SDS011;7742;44.320;19.820;2024-01-10T01:03:43;49.95;;;40.65;;
15281;SDS011;7742;44.320;19.820;2024-01-10T01:06:10;49.65;;;42.78;;
15281;SDS011;7742;44.320;19.820;2024-01-10T01:08:37;52.78;;;44.00;;
15281;SDS011;7742;44.320;19.820;2024-01-10T01:11:04;51.10;;;43.60;;
15281;SDS011;7742;44.320;19.820;2024-01-10T01:13:31;53.15;;;43.70;;
15281;SDS011;7742;44.320;19.820;2024-01-10T01:15:58;53.05;;;43.42;;
15281;SDS011;7742;44.320;19.820;2024-01-10T01:18:26;52.65;;;44.40;;
15281;SDS011;7742;44.320;19.820;2024-01-10T01:20:54;45.40;;;39.95;;
15281;SDS011;7742;44.320;19.820;2024-01-10T01:23:30;50.67;;;41.33;;
15281;SDS011;7742;44.320;19.820;2024-01-10T01:25:57;46.78;;;40.80;;
15281;SDS011;7742;44.320;19.820;2024-01-10T01:28:24;48.58;;;40.63;;
15281;SDS011;7742;44.320;19.820;2024-01-10T01:30:51;49.30;;;39.88;;
15281;SDS011;7742;44.320;19.820;2024-01-10T01:33:18;46.97;;;37.88;;
15281;SDS011;7742;44.320;19.820;2024-01-10T01:35:47;45.47;;;37.97;;
15281;SDS011;7742;44.320;19.820;2024-01-10T01:38:14;46.05;;;38.88;;
15281;SDS011;7742;44.320;19.820;2024-01-10T01:40:41;45.88;;;39.67;;
15281;SDS011;7742;44.320;19.820;2024-01-10T01:43:23;42.63;;;38.03;;
15281;SDS011;7742;44.320;19.820;2024-01-10T01:45:54;41.47;;;35.85;;
15281;SDS011;7742;44.320;19.820;2024-01-10T01:48:22;42.65;;;35.55;;
15281;SDS011;7742;44.320;19.820;2024-01-10T01:50:51;39.33;;;34.40;;
15281;SDS011;7742;44.320;19.820;2024-01-10T01:53:19;42.92;;;36.45;;
15281;SDS011;7742;44.320;19.820;2024-01-10T01:55:47;40.45;;;35.58;;
15281;SDS011;7742;44.320;19.820;2024-01-10T01:58:14;42.10;;;37.33;;
15281;SDS011;7742;44.320;19.820;2024-01-10T02:00:42;42.03;;;36.45;;
15281;SDS011;7742;44.320;19.820;2024-01-10T02:03:24;40.75;;;34.53;;
15281;SDS011;7742;44.320;19.820;2024-01-10T02:05:55;42.58;;;36.17;;
15281;SDS011;7742;44.320;19.820;2024-01-10T02:08:22;43.75;;;38.58;;
15281;SDS011;7742;44.320;19.820;2024-01-10T02:10:52;44.85;;;39.60;;
15281;SDS011;7742;44.320;19.820;2024-01-10T02:13:32;44.65;;;39.42;;
15281;SDS011;7742;44.320;19.820;2024-01-10T02:15:59;47.05;;;39.47;;
15281;SDS011;7742;44.320;19.820;2024-01-10T02:18:26;48.50;;;39.53;;
15281;SDS011;7742;44.320;19.820;2024-01-10T02:20:59;45.63;;;39.45;;
15281;SDS011;7742;44.320;19.820;2024-01-10T02:23:26;46.30;;;40.50;;
15281;SDS011;7742;44.320;19.820;2024-01-10T02:25:55;47.08;;;39.05;;
15281;SDS011;7742;44.320;19.820;2024-01-10T02:28:22;50.60;;;39.80;;
15281;SDS011;7742;44.320;19.820;2024-01-10T02:37:01;49.20;;;40.88;;
15281;SDS011;7742;44.320;19.820;2024-01-10T02:39:28;46.45;;;40.30;;
15281;SDS011;7742;44.320;19.820;2024-01-10T02:42:01;41.67;;;36.45;;
15281;SDS011;7742;44.320;19.820;2024-01-10T02:44:27;48.40;;;38.63;;
15281;SDS011;7742;44.320;19.820;2024-01-10T02:46:54;45.85;;;39.28;;
15281;SDS011;7742;44.320;19.820;2024-01-10T02:49:21;44.53;;;38.40;;
15281;SDS011;7742;44.320;19.820;2024-01-10T02:52:04;47.80;;;39.58;;
15281;SDS011;7742;44.320;19.820;2024-01-10T02:54:42;46.60;;;39.75;;
15281;SDS011;7742;44.320;19.820;2024-01-10T03:00:09;46.20;;;38.97;;
15281;SDS011;7742;44.320;19.820;2024-01-10T03:02:36;42.10;;;36.88;;
15281;SDS011;7742;44.320;19.820;2024-01-10T03:05:03;46.75;;;38.08;;
15281;SDS011;7742;44.320;19.820;2024-01-10T03:07:30;43.25;;;38.58;;
15281;SDS011;7742;44.320;19.820;2024-01-10T03:09:57;43.50;;;37.67;;
15281;SDS011;7742;44.320;19.820;2024-01-10T03:12:24;44.72;;;38.05;;
15281;SDS011;7742;44.320;19.820;2024-01-10T03:14:51;43.55;;;37.85;;
15281;SDS011;7742;44.320;19.820;2024-01-10T03:17:19;42.35;;;37.58;;
15281;SDS011;7742;44.320;19.820;2024-01-10T03:19:47;42.60;;;36.97;;
15281;SDS011;7742;44.320;19.820;2024-01-10T03:22:14;45.50;;;38.58;;
15281;SDS011;7742;44.320;19.820;2024-01-10T03:24:41;44.45;;;39.30;;
15281;SDS011;7742;44.320;19.820;2024-01-10T03:27:08;45.45;;;39.55;;
15281;SDS011;7742;44.320;19.820;2024-01-10T03:29:35;43.83;;;37.17;;
15281;SDS011;7742;44.320;19.820;2024-01-10T03:32:02;45.58;;;37.17;;
15281;SDS011;7742;44.320;19.820;2024-01-10T03:34:30;45.78;;;39.40;;
15281;SDS011;7742;44.320;19.820;2024-01-10T03:36:57;41.88;;;37.10;;
15281;SDS011;7742;44.320;19.820;2024-01-10T03:39:24;46.75;;;39.00;;
15281;SDS011;7742;44.320;19.820;2024-01-10T03:41:51;41.97;;;36.10;;
15281;SDS011;7742;44.320;19.820;2024-01-10T03:44:18;41.47;;;36.95;;
15281;SDS011;7742;44.320;19.820;2024-01-10T03:46:45;42.55;;;37.92;;
15281;SDS011;7742;44.320;19.820;2024-01-10T03:49:12;42.78;;;37.20;;
15281;SDS011;7742;44.320;19.820;2024-01-10T03:51:40;38.92;;;34.80;;
15281;SDS011;7742;44.320;19.820;2024-01-10T03:54:07;37.20;;;33.33;;
15281;SDS011;7742;44.320;19.820;2024-01-10T03:56:34;39.28;;;35.15;;
15281;SDS011;7742;44.320;19.820;2024-01-10T03:59:01;39.78;;;35.58;;
15281;SDS011;7742;44.320;19.820;2024-01-10T04:01:28;41.47;;;35.55;;
15281;SDS011;7742;44.320;19.820;2024-01-10T04:03:55;44.67;;;37.83;;
15281;SDS011;7742;44.320;19.820;2024-01-10T04:06:21;44.00;;;37.15;;
15281;SDS011;7742;44.320;19.820;2024-01-10T04:08:50;42.35;;;37.75;;
15281;SDS011;7742;44.320;19.820;2024-01-10T04:11:17;42.28;;;37.22;;
15281;SDS011;7742;44.320;19.820;2024-01-10T04:13:44;41.35;;;36.88;;
15281;SDS011;7742;44.320;19.820;2024-01-10T04:16:11;39.42;;;35.33;;
15281;SDS011;7742;44.320;19.820;2024-01-10T04:18:38;39.83;;;35.50;;
15281;SDS011;7742;44.320;19.820;2024-01-10T04:21:05;44.13;;;38.50;;
15281;SDS011;7742;44.320;19.820;2024-01-10T04:23:32;43.63;;;37.00;;
15281;SDS011;7742;44.320;19.820;2024-01-10T04:26:01;46.95;;;38.13;;
15281;SDS011;7742;44.320;19.820;2024-01-10T04:28:28;49.35;;;41.17;;
15281;SDS011;7742;44.320;19.820;2024-01-10T04:30:55;60.92;;;41.42;;
15281;SDS011;7742;44.320;19.820;2024-01-10T04:33:22;51.97;;;40.10;;
15281;SDS011;7742;44.320;19.820;2024-01-10T04:35:49;56.70;;;41.70;;
15281;SDS011;7742;44.320;19.820;2024-01-10T04:38:16;53.92;;;39.38;;
15281;SDS011;7742;44.320;19.820;2024-01-10T04:40:43;136.32;;;43.58;;
15281;SDS011;7742;44.320;19.820;2024-01-10T04:43:12;89.00;;;42.25;;
15281;SDS011;7742;44.320;19.820;2024-01-10T04:45:45;79.30;;;42.90;;
15281;SDS011;7742;44.320;19.820;2024-01-10T04:48:12;74.25;;;42.15;;
15281;SDS011;7742;44.320;19.820;2024-01-10T04:50:39;75.80;;;41.72;;
15281;SDS011;7742;44.320;19.820;2024-01-10T04:53:21;60.70;;;40.63;;
15281;SDS011;7742;44.320;19.820;2024-01-10T04:55:48;150.13;;;44.70;;
15281;SDS011;7742;44.320;19.820;2024-01-10T04:58:17;65.97;;;40.63;;
15281;SDS011;7742;44.320;19.820;2024-01-10T05:00:44;75.35;;;42.83;;
15281;SDS011;7742;44.320;19.820;2024-01-10T05:03:11;73.82;;;42.80;;
15281;SDS011;7742;44.320;19.820;2024-01-10T05:05:38;105.78;;;42.55;;
15281;SDS011;7742;44.320;19.820;2024-01-10T05:08:05;75.22;;;42.67;;
15281;SDS011;7742;44.320;19.820;2024-01-10T05:10:32;97.80;;;70.00;;
15281;SDS011;7742;44.320;19.820;2024-01-10T05:12:59;128.55;;;45.38;;
15281;SDS011;7742;44.320;19.820;2024-01-10T05:15:27;55.65;;;43.25;;
15281;SDS011;7742;44.320;19.820;2024-01-10T05:17:54;64.60;;;43.90;;
15281;SDS011;7742;44.320;19.820;2024-01-10T05:20:21;54.30;;;41.55;;
15281;SDS011;7742;44.320;19.820;2024-01-10T05:22:48;51.33;;;40.78;;
15281;SDS011;7742;44.320;19.820;2024-01-10T05:25:15;50.97;;;41.67;;
15281;SDS011;7742;44.320;19.820;2024-01-10T05:27:43;59.30;;;43.13;;
15281;SDS011;7742;44.320;19.820;2024-01-10T05:30:11;58.85;;;41.47;;
15281;SDS011;7742;44.320;19.820;2024-01-10T05:32:40;54.05;;;40.85;;
15281;SDS011;7742;44.320;19.820;2024-01-10T05:35:07;58.25;;;42.67;;
15281;SDS011;7742;44.320;19.820;2024-01-10T05:37:35;55.97;;;42.63;;
15281;SDS011;7742;44.320;19.820;2024-01-10T05:40:02;53.78;;;42.00;;
15281;SDS011;7742;44.320;19.820;2024-01-10T05:42:31;51.17;;;40.58;;
15281;SDS011;7742;44.320;19.820;2024-01-10T05:44:58;51.53;;;40.75;;
15281;SDS011;7742;44.320;19.820;2024-01-10T05:47:25;56.08;;;41.25;;
15281;SDS011;7742;44.320;19.820;2024-01-10T05:49:53;66.32;;;41.38;;
15281;SDS011;7742;44.320;19.820;2024-01-10T05:52:20;59.42;;;40.97;;
15281;SDS011;7742;44.320;19.820;2024-01-10T05:54:48;51.35;;;38.95;;
15281;SDS011;7742;44.320;19.820;2024-01-10T05:57:15;53.97;;;37.20;;
15281;SDS011;7742;44.320;19.820;2024-01-10T05:59:42;65.00;;;37.75;;
15281;SDS011;7742;44.320;19.820;2024-01-10T06:02:09;49.65;;;34.05;;
15281;SDS011;7742;44.320;19.820;2024-01-10T06:04:36;54.60;;;36.42;;
15281;SDS011;7742;44.320;19.820;2024-01-10T06:07:04;53.65;;;37.92;;
15281;SDS011;7742;44.320;19.820;2024-01-10T06:09:31;56.45;;;37.92;;
15281;SDS011;7742;44.320;19.820;2024-01-10T06:11:58;79.78;;;36.78;;
15281;SDS011;7742;44.320;19.820;2024-01-10T06:14:25;49.25;;;37.38;;
15281;SDS011;7742;44.320;19.820;2024-01-10T06:16:52;49.50;;;36.88;;
15281;SDS011;7742;44.320;19.820;2024-01-10T06:19:19;50.35;;;37.35;;
15281;SDS011;7742;44.320;19.820;2024-01-10T06:21:46;54.63;;;37.25;;
15281;SDS011;7742;44.320;19.820;2024-01-10T06:24:15;51.08;;;36.15;;
15281;SDS011;7742;44.320;19.820;2024-01-10T06:26:42;47.42;;;37.00;;
15281;SDS011;7742;44.320;19.820;2024-01-10T06:29:09;46.85;;;36.38;;
15281;SDS011;7742;44.320;19.820;2024-01-10T06:31:36;48.75;;;35.67;;
15281;SDS011;7742;44.320;19.820;2024-01-10T06:34:03;48.80;;;35.17;;
15281;SDS011;7742;44.320;19.820;2024-01-10T06:36:30;62.45;;;36.72;;
15281;SDS011;7742;44.320;19.820;2024-01-10T06:38:57;51.83;;;35.65;;
15281;SDS011;7742;44.320;19.820;2024-01-10T06:41:25;46.17;;;36.28;;
15281;SDS011;7742;44.320;19.820;2024-01-10T06:43:52;54.08;;;36.05;;
15281;SDS011;7742;44.320;19.820;2024-01-10T06:46:20;45.90;;;34.65;;
15281;SDS011;7742;44.320;19.820;2024-01-10T06:48:47;56.60;;;36.22;;
15281;SDS011;7742;44.320;19.820;2024-01-10T06:51:15;63.72;;;38.70;;
15281;SDS011;7742;44.320;19.820;2024-01-10T06:53:42;50.17;;;35.78;;
15281;SDS011;7742;44.320;19.820;2024-01-10T06:56:09;57.97;;;36.58;;
15281;SDS011;7742;44.320;19.820;2024-01-10T06:58:38;50.83;;;35.13;;
15281;SDS011;7742;44.320;19.820;2024-01-10T07:01:05;45.22;;;34.78;;
15281;SDS011;7742;44.320;19.820;2024-01-10T07:03:32;47.08;;;33.20;;
15281;SDS011;7742;44.320;19.820;2024-01-10T07:06:00;47.10;;;34.80;;
15281;SDS011;7742;44.320;19.820;2024-01-10T07:08:26;46.05;;;35.72;;
15281;SDS011;7742;44.320;19.820;2024-01-10T07:11:02;49.67;;;37.50;;
15281;SDS011;7742;44.320;19.820;2024-01-10T07:13:30;41.92;;;34.45;;
15281;SDS011;7742;44.320;19.820;2024-01-10T07:16:02;49.17;;;38.25;;
15281;SDS011;7742;44.320;19.820;2024-01-10T07:18:44;53.05;;;37.78;;
15281;SDS011;7742;44.320;19.820;2024-01-10T07:21:12;52.55;;;36.67;;
15281;SDS011;7742;44.320;19.820;2024-01-10T07:23:39;55.97;;;38.40;;
15281;SDS011;7742;44.320;19.820;2024-01-10T07:26:08;54.40;;;35.30;;
15281;SDS011;7742;44.320;19.820;2024-01-10T07:32:22;57.20;;;36.45;;
15281;SDS011;7742;44.320;19.820;2024-01-10T07:34:49;45.50;;;35.42;;
15281;SDS011;7742;44.320;19.820;2024-01-10T07:37:16;43.72;;;36.08;;
15281;SDS011;7742;44.320;19.820;2024-01-10T07:39:46;41.13;;;35.05;;
15281;SDS011;7742;44.320;19.820;2024-01-10T07:42:13;46.47;;;35.85;;
15281;SDS011;7742;44.320;19.820;2024-01-10T07:44:40;44.17;;;35.97;;
15281;SDS011;7742;44.320;19.820;2024-01-10T07:47:07;46.95;;;36.20;;
15281;SDS011;7742;44.320;19.820;2024-01-10T07:49:35;39.78;;;34.47;;
15281;SDS011;7742;44.320;19.820;2024-01-10T07:52:03;51.13;;;40.80;;
15281;SDS011;7742;44.320;19.820;2024-01-10T07:54:30;42.90;;;35.35;;
15281;SDS011;7742;44.320;19.820;2024-01-10T07:56:57;43.45;;;37.25;;
15281;SDS011;7742;44.320;19.820;2024-01-10T07:59:24;44.92;;;35.75;;
15281;SDS011;7742;44.320;19.820;2024-01-10T08:01:54;46.90;;;36.97;;
15281;SDS011;7742;44.320;19.820;2024-01-10T08:04:24;49.63;;;36.15;;
15281;SDS011;7742;44.320;19.820;2024-01-10T08:06:52;44.92;;;36.33;;
15281;SDS011;7742;44.320;19.820;2024-01-10T08:09:19;47.55;;;36.00;;
15281;SDS011;7742;44.320;19.820;2024-01-10T08:11:46;41.30;;;36.45;;
15281;SDS011;7742;44.320;19.820;2024-01-10T08:14:13;45.08;;;37.08;;
15281;SDS011;7742;44.320;19.820;2024-01-10T08:16:40;44.35;;;36.75;;
15281;SDS011;7742;44.320;19.820;2024-01-10T08:19:07;43.78;;;37.05;;
15281;SDS011;7742;44.320;19.820;2024-01-10T08:21:35;45.45;;;35.70;;
15281;SDS011;7742;44.320;19.820;2024-01-10T08:24:03;62.08;;;40.83;;
15281;SDS011;7742;44.320;19.820;2024-01-10T08:26:30;60.53;;;40.85;;
15281;SDS011;7742;44.320;19.820;2024-01-10T08:28:57;61.15;;;42.67;;
15281;SDS011;7742;44.320;19.820;2024-01-10T08:31:24;51.42;;;38.67;;
15281;SDS011;7742;44.320;19.820;2024-01-10T08:33:52;54.85;;;41.92;;
15281;SDS011;7742;44.320;19.820;2024-01-10T08:36:19;49.67;;;39.75;;
15281;SDS011;7742;44.320;19.820;2024-01-10T08:38:46;47.47;;;38.00;;
15281;SDS011;7742;44.320;19.820;2024-01-10T08:41:15;52.13;;;39.60;;
15281;SDS011;7742;44.320;19.820;2024-01-10T08:43:42;47.97;;;37.58;;
15281;SDS011;7742;44.320;19.820;2024-01-10T08:46:09;45.30;;;36.55;;
15281;SDS011;7742;44.320;19.820;2024-01-10T08:48:36;43.35;;;36.65;;
15281;SDS011;7742;44.320;19.820;2024-01-10T08:51:03;41.80;;;35.42;;
15281;SDS011;7742;44.320;19.820;2024-01-10T08:53:30;46.95;;;36.42;;
15281;SDS011;7742;44.320;19.820;2024-01-10T08:55:57;48.03;;;37.88;;
15281;SDS011;7742;44.320;19.820;2024-01-10T08:58:26;45.22;;;37.55;;
15281;SDS011;7742;44.320;19.820;2024-01-10T09:00:53;48.80;;;39.83;;
15281;SDS011;7742;44.320;19.820;2024-01-10T09:03:20;48.03;;;39.80;;
15281;SDS011;7742;44.320;19.820;2024-01-10T09:05:47;48.10;;;39.23;;
15281;SDS011;7742;44.320;19.820;2024-01-10T09:08:13;45.37;;;39.87;;
15281;SDS011;7742;44.320;19.820;2024-01-10T09:10:41;47.27;;;40.33;;
15281;SDS011;7742;44.320;19.820;2024-01-10T09:13:08;49.23;;;39.97;;
15281;SDS011;7742;44.320;19.820;2024-01-10T09:15:37;51.27;;;41.43;;
15281;SDS011;7742;44.320;19.820;2024-01-10T09:18:04;47.27;;;38.00;;
15281;SDS011;7742;44.320;19.820;2024-01-10T09:20:31;49.00;;;40.87;;
15281;SDS011;7742;44.320;19.820;2024-01-10T09:22:58;46.57;;;39.80;;
15281;SDS011;7742;44.320;19.820;2024-01-10T09:25:25;47.47;;;39.87;;
15281;SDS011;7742;44.320;19.820;2024-01-10T09:27:52;50.63;;;41.07;;
15281;SDS011;7742;44.320;19.820;2024-01-10T09:30:19;47.90;;;39.17;;
15281;SDS011;7742;44.320;19.820;2024-01-10T09:32:47;48.00;;;40.33;;
15281;SDS011;7742;44.320;19.820;2024-01-10T09:35:14;47.90;;;40.27;;
15281;SDS011;7742;44.320;19.820;2024-01-10T09:37:43;47.10;;;41.43;;
15281;SDS011;7742;44.320;19.820;2024-01-10T09:40:11;46.47;;;41.43;;
15281;SDS011;7742;44.320;19.820;2024-01-10T09:42:39;45.50;;;39.90;;
15281;SDS011;7742;44.320;19.820;2024-01-10T09:45:07;46.07;;;40.87;;
15281;SDS011;7742;44.320;19.820;2024-01-10T09:47:34;46.13;;;38.63;;
15281;SDS011;7742;44.320;19.820;2024-01-10T09:50:04;48.13;;;38.90;;
15281;SDS011;7742;44.320;19.820;2024-01-10T09:52:35;45.20;;;38.10;;
15281;SDS011;7742;44.320;19.820;2024-01-10T09:55:06;46.07;;;40.07;;
15281;SDS011;7742;44.320;19.820;2024-01-10T09:57:33;48.40;;;41.03;;
15281;SDS011;7742;44.320;19.820;2024-01-10T10:00:02;47.63;;;40.67;;
15281;SDS011;7742;44.320;19.820;2024-01-10T10:02:30;48.67;;;40.53;;
15281;SDS011;7742;44.320;19.820;2024-01-10T10:05:01;49.27;;;40.40;;
15281;SDS011;7742;44.320;19.820;2024-01-10T10:07:31;45.37;;;39.47;;
15281;SDS011;7742;44.320;19.820;2024-01-10T10:09:57;46.27;;;38.97;;
15281;SDS011;7742;44.320;19.820;2024-01-10T10:12:28;48.07;;;40.13;;
15281;SDS011;7742;44.320;19.820;2024-01-10T10:15:09;51.93;;;41.00;;
15281;SDS011;7742;44.320;19.820;2024-01-10T10:17:36;49.30;;;41.93;;
15281;SDS011;7742;44.320;19.820;2024-01-10T10:20:10;52.93;;;41.90;;
15281;SDS011;7742;44.320;19.820;2024-01-10T10:22:40;53.27;;;43.23;;
15281;SDS011;7742;44.320;19.820;2024-01-10T10:25:10;52.00;;;42.63;;
15281;SDS011;7742;44.320;19.820;2024-01-10T10:27:38;48.47;;;41.23;;
15281;SDS011;7742;44.320;19.820;2024-01-10T10:30:05;49.07;;;43.10;;
15281;SDS011;7742;44.320;19.820;2024-01-10T10:32:34;51.33;;;42.73;;
15281;SDS011;7742;44.320;19.820;2024-01-10T10:35:02;48.80;;;40.83;;
15281;SDS011;7742;44.320;19.820;2024-01-10T10:37:30;47.90;;;41.03;;
15281;SDS011;7742;44.320;19.820;2024-01-10T10:39:58;49.20;;;41.73;;
15281;SDS011;7742;44.320;19.820;2024-01-10T10:42:25;46.20;;;38.23;;
15281;SDS011;7742;44.320;19.820;2024-01-10T10:44:54;40.53;;;36.17;;
15281;SDS011;7742;44.320;19.820;2024-01-10T10:47:24;35.83;;;32.17;;
15281;SDS011;7742;44.320;19.820;2024-01-10T10:49:52;38.83;;;34.50;;
15281;SDS011;7742;44.320;19.820;2024-01-10T10:52:20;40.87;;;35.40;;
15281;SDS011;7742;44.320;19.820;2024-01-10T10:54:48;33.70;;;30.20;;
15281;SDS011;7742;44.320;19.820;2024-01-10T10:57:17;31.60;;;28.30;;
15281;SDS011;7742;44.320;19.820;2024-01-10T10:59:45;35.87;;;32.30;;
15281;SDS011;7742;44.320;19.820;2024-01-10T11:02:13;32.10;;;28.80;;
15281;SDS011;7742;44.320;19.820;2024-01-10T11:04:44;28.52;;;25.65;;
15281;SDS011;7742;44.320;19.820;2024-01-10T11:07:11;27.90;;;25.08;;
15281;SDS011;7742;44.320;19.820;2024-01-10T11:09:38;25.77;;;23.13;;
15281;SDS011;7742;44.320;19.820;2024-01-10T11:12:10;20.85;;;19.02;;
15281;SDS011;7742;44.320;19.820;2024-01-10T11:14:46;16.17;;;15.10;;
15281;SDS011;7742;44.320;19.820;2024-01-10T11:17:29;19.80;;;18.10;;
15281;SDS011;7742;44.320;19.820;2024-01-10T11:22:46;26.00;;;23.50;;
15281;SDS011;7742;44.320;19.820;2024-01-10T11:25:15;27.08;;;24.30;;
15281;SDS011;7742;44.320;19.820;2024-01-10T11:27:43;25.00;;;22.67;;
15281;SDS011;7742;44.320;19.820;2024-01-10T11:30:12;25.58;;;22.98;;
15281;SDS011;7742;44.320;19.820;2024-01-10T11:32:39;27.85;;;23.25;;
15281;SDS011;7742;44.320;19.820;2024-01-10T11:35:11;29.67;;;26.65;;
15281;SDS011;7742;44.320;19.820;2024-01-10T11:37:42;32.33;;;29.13;;
15281;SDS011;7742;44.320;19.820;2024-01-10T11:40:09;30.25;;;27.27;;
15281;SDS011;7742;44.320;19.820;2024-01-10T11:42:43;29.77;;;26.93;;
15281;SDS011;7742;44.320;19.820;2024-01-10T11:45:13;31.43;;;28.07;;
15281;SDS011;7742;44.320;19.820;2024-01-10T11:47:42;36.88;;;32.47;;
15281;SDS011;7742;44.320;19.820;2024-01-10T11:50:09;32.83;;;29.37;;
15281;SDS011;7742;44.320;19.820;2024-01-10T11:52:45;31.87;;;28.50;;
15281;SDS011;7742;44.320;19.820;2024-01-10T11:55:22;36.53;;;32.20;;
15281;SDS011;7742;44.320;19.820;2024-01-10T11:58:10;30.77;;;27.50;;
15281;SDS011;7742;44.320;19.820;2024-01-10T12:00:38;31.30;;;28.13;;
15281;SDS011;7742;44.320;19.820;2024-01-10T12:03:05;33.47;;;29.90;;
15281;SDS011;7742;44.320;19.820;2024-01-10T12:05:33;46.20;;;39.10;;
15281;SDS011;7742;44.320;19.820;2024-01-10T12:08:01;38.97;;;34.97;;
15281;SDS011;7742;44.320;19.820;2024-01-10T12:10:31;39.67;;;34.20;;
15281;SDS011;7742;44.320;19.820;2024-01-10T12:13:01;57.90;;;46.73;;
15281;SDS011;7742;44.320;19.820;2024-01-10T12:15:28;72.50;;;54.20;;
15281;SDS011;7742;44.320;19.820;2024-01-10T12:17:57;64.03;;;52.73;;
15281;SDS011;7742;44.320;19.820;2024-01-10T12:20:24;64.37;;;52.03;;
15281;SDS011;7742;44.320;19.820;2024-01-10T12:22:51;65.63;;;52.27;;
15281;SDS011;7742;44.320;19.820;2024-01-10T12:25:18;60.33;;;50.03;;
15281;SDS011;7742;44.320;19.820;2024-01-10T12:27:45;39.73;;;34.80;;
15281;SDS011;7742;44.320;19.820;2024-01-10T12:30:13;41.33;;;35.93;;
15281;SDS011;7742;44.320;19.820;2024-01-10T12:32:40;56.03;;;46.13;;
15281;SDS011;7742;44.320;19.820;2024-01-10T12:35:08;52.13;;;44.53;;
15281;SDS011;7742;44.320;19.820;2024-01-10T12:37:35;33.13;;;29.83;;
15281;SDS011;7742;44.320;19.820;2024-01-10T12:40:02;33.73;;;30.30;;
15281;SDS011;7742;44.320;19.820;2024-01-10T12:42:30;36.30;;;32.40;;
15281;SDS011;7742;44.320;19.820;2024-01-10T12:44:57;34.57;;;31.07;;
15281;SDS011;7742;44.320;19.820;2024-01-10T12:47:24;39.00;;;34.83;;
15281;SDS011;7742;44.320;19.820;2024-01-10T12:49:51;32.53;;;29.13;;
15281;SDS011;7742;44.320;19.820;2024-01-10T12:52:20;33.83;;;30.33;;
15281;SDS011;7742;44.320;19.820;2024-01-10T12:54:47;35.23;;;31.73;;
15281;SDS011;7742;44.320;19.820;2024-01-10T12:57:14;37.17;;;33.37;;
15281;SDS011;7742;44.320;19.820;2024-01-10T12:59:41;37.20;;;33.30;;
15281;SDS011;7742;44.320;19.820;2024-01-10T13:02:08;38.33;;;34.05;;
15281;SDS011;7742;44.320;19.820;2024-01-10T13:04:35;36.35;;;31.90;;
15281;SDS011;7742;44.320;19.820;2024-01-10T13:07:02;33.22;;;29.88;;
15281;SDS011;7742;44.320;19.820;2024-01-10T13:09:30;32.13;;;28.77;;
15281;SDS011;7742;44.320;19.820;2024-01-10T13:11:57;28.45;;;25.42;;
15281;SDS011;7742;44.320;19.820;2024-01-10T13:14:25;28.27;;;25.55;;
15281;SDS011;7742;44.320;19.820;2024-01-10T13:16:52;26.35;;;23.88;;
15281;SDS011;7742;44.320;19.820;2024-01-10T13:19:22;27.63;;;25.02;;
15281;SDS011;7742;44.320;19.820;2024-01-10T13:21:49;26.48;;;24.02;;
15281;SDS011;7742;44.320;19.820;2024-01-10T13:24:16;26.50;;;24.08;;
15281;SDS011;7742;44.320;19.820;2024-01-10T13:26:44;30.45;;;27.42;;
15281;SDS011;7742;44.320;19.820;2024-01-10T13:29:11;27.38;;;24.85;;
15281;SDS011;7742;44.320;19.820;2024-01-10T13:31:39;25.65;;;23.17;;
15281;SDS011;7742;44.320;19.820;2024-01-10T13:34:06;27.70;;;25.00;;
15281;SDS011;7742;44.320;19.820;2024-01-10T13:36:33;25.58;;;23.30;;
15281;SDS011;7742;44.320;19.820;2024-01-10T13:38:59;22.13;;;19.92;;
15281;SDS011;7742;44.320;19.820;2024-01-10T13:41:29;23.00;;;20.80;;
15281;SDS011;7742;44.320;19.820;2024-01-10T13:43:57;23.63;;;21.40;;
15281;SDS011;7742;44.320;19.820;2024-01-10T13:46:24;24.95;;;22.45;;
15281;SDS011;7742;44.320;19.820;2024-01-10T13:48:51;24.88;;;22.58;;
15281;SDS011;7742;44.320;19.820;2024-01-10T13:51:18;25.75;;;23.27;;
15281;SDS011;7742;44.320;19.820;2024-01-10T13:53:45;23.40;;;21.40;;
15281;SDS011;7742;44.320;19.820;2024-01-10T13:56:11;26.30;;;24.00;;
15281;SDS011;7742;44.320;19.820;2024-01-10T13:58:38;24.63;;;22.52;;
15281;SDS011;7742;44.320;19.820;2024-01-10T14:01:07;22.67;;;20.60;;
15281;SDS011;7742;44.320;19.820;2024-01-10T14:03:34;23.77;;;21.48;;
15281;SDS011;7742;44.320;19.820;2024-01-10T14:06:01;22.35;;;20.35;;
15281;SDS011;7742;44.320;19.820;2024-01-10T14:08:29;23.25;;;21.25;;
15281;SDS011;7742;44.320;19.820;2024-01-10T14:10:56;28.20;;;25.70;;
15281;SDS011;7742;44.320;19.820;2024-01-10T14:13:23;22.45;;;20.42;;
15281;SDS011;7742;44.320;19.820;2024-01-10T14:15:50;25.70;;;23.13;;
15281;SDS011;7742;44.320;19.820;2024-01-10T14:18:18;25.40;;;22.75;;
15281;SDS011;7742;44.320;19.820;2024-01-10T14:20:46;27.30;;;24.60;;
15281;SDS011;7742;44.320;19.820;2024-01-10T14:23:14;28.33;;;25.50;;
15281;SDS011;7742;44.320;19.820;2024-01-10T14:25:43;27.30;;;24.70;;
15281;SDS011;7742;44.320;19.820;2024-01-10T14:28:10;29.25;;;26.35;;
15281;SDS011;7742;44.320;19.820;2024-01-10T14:30:36;28.17;;;25.17;;
15281;SDS011;7742;44.320;19.820;2024-01-10T14:33:03;32.30;;;28.77;;
15281;SDS011;7742;44.320;19.820;2024-01-10T14:35:32;33.13;;;29.65;;
15281;SDS011;7742;44.320;19.820;2024-01-10T14:37:59;32.83;;;29.27;;
15281;SDS011;7742;44.320;19.820;2024-01-10T14:40:25;31.90;;;28.52;;
15281;SDS011;7742;44.320;19.820;2024-01-10T14:42:52;34.97;;;31.40;;